sensor_id;sensor_type;location;lat;lon;timestamp;P1;durP1;ratioP1;P2;durP2;ratioP2
72639;SDS011;60683;51.730;8.762;2024-01-11T00:01:45;6.20;;;4.00;;
72639;SDS011;60683;51.730;8.762;2024-01-11T00:04:31;6.88;;;3.95;;
72639;SDS011;60683;51.730;8.762;2024-01-11T00:07:16;5.18;;;3.38;;
72639;SDS011;60683;51.730;8.762;2024-01-11T00:10:03;6.57;;;4.28;;
72639;SDS011;60683;51.730;8.762;2024-01-11T00:12:49;15.13;;;5.45;;
72639;SDS011;60683;51.730;8.762;2024-01-11T00:15:34;10.82;;;3.25;;
72639;SDS011;60683;51.730;8.762;2024-01-11T00:18:19;8.63;;;3.95;;
72639;SDS011;60683;51.730;8.762;2024-01-11T00:21:05;8.77;;;5.65;;
72639;SDS011;60683;51.730;8.762;2024-01-11T00:23:50;14.60;;;4.88;;
72639;SDS011;60683;51.730;8.762;2024-01-11T00:26:37;11.52;;;4.25;;
72639;SDS011;60683;51.730;8.762;2024-01-11T00:29:22;6.70;;;3.75;;
72639;SDS011;60683;51.730;8.762;2024-01-11T00:32:07;9.95;;;4.45;;
72639;SDS011;60683;51.730;8.762;2024-01-11T00:34:52;11.90;;;6.15;;
72639;SDS011;60683;51.730;8.762;2024-01-11T00:37:38;7.82;;;3.72;;
72639;SDS011;60683;51.730;8.762;2024-01-11T00:40:23;9.25;;;5.28;;
72639;SDS011;60683;51.730;8.762;2024-01-11T00:43:10;9.85;;;5.13;;
72639;SDS011;60683;51.730;8.762;2024-01-11T00:45:56;5.45;;;3.65;;
72639;SDS011;60683;51.730;8.762;2024-01-11T00:48:41;4.35;;;3.67;;
72639;SDS011;60683;51.730;8.762;2024-01-11T00:51:26;7.45;;;4.57;;
72639;SDS011;60683;51.730;8.762;2024-01-11T00:54:11;8.07;;;4.65;;
72639;SDS011;60683;51.730;8.762;2024-01-11T00:56:57;9.20;;;5.40;;
72639;SDS011;60683;51.730;8.762;2024-01-11T00:59:44;4.47;;;4.00;;
72639;SDS011;60683;51.730;8.762;2024-01-11T01:02:29;8.38;;;3.70;;
72639;SDS011;60683;51.730;8.762;2024-01-11T01:05:14;11.05;;;5.18;;
72639;SDS011;60683;51.730;8.762;2024-01-11T01:08:00;7.18;;;3.70;;
72639;SDS011;60683;51.730;8.762;2024-01-11T01:10:45;5.22;;;2.15;;
72639;SDS011;60683;51.730;8.762;2024-01-11T01:13:31;7.78;;;2.60;;
72639;SDS011;60683;51.730;8.762;2024-01-11T01:16:17;8.88;;;5.15;;
72639;SDS011;60683;51.730;8.762;2024-01-11T01:19:03;5.65;;;4.93;;
72639;SDS011;60683;51.730;8.762;2024-01-11T01:21:48;14.20;;;5.45;;
72639;SDS011;60683;51.730;8.762;2024-01-11T01:24:34;5.18;;;4.15;;
72639;SDS011;60683;51.730;8.762;2024-01-11T01:27:19;10.60;;;3.75;;
72639;SDS011;60683;51.730;8.762;2024-01-11T01:30:05;8.07;;;5.55;;
72639;SDS011;60683;51.730;8.762;2024-01-11T01:32:53;8.18;;;2.35;;
72639;SDS011;60683;51.730;8.762;2024-01-11T01:35:40;8.75;;;4.57;;
72639;SDS011;60683;51.730;8.762;2024-01-11T01:38:25;11.70;;;3.78;;
72639;SDS011;60683;51.730;8.762;2024-01-11T01:41:11;7.53;;;4.10;;
72639;SDS011;60683;51.730;8.762;2024-01-11T01:43:56;5.38;;;3.53;;
72639;SDS011;60683;51.730;8.762;2024-01-11T01:46:41;4.25;;;2.63;;
72639;SDS011;60683;51.730;8.762;2024-01-11T01:49:28;10.70;;;2.80;;
72639;SDS011;60683;51.730;8.762;2024-01-11T01:52:14;5.53;;;4.82;;
72639;SDS011;60683;51.730;8.762;2024-01-11T01:55:01;6.25;;;4.13;;
72639;SDS011;60683;51.730;8.762;2024-01-11T01:57:47;7.55;;;3.30;;
72639;SDS011;60683;51.730;8.762;2024-01-11T02:00:35;8.63;;;2.45;;
72639;SDS011;60683;51.730;8.762;2024-01-11T02:03:20;6.88;;;3.33;;
72639;SDS011;60683;51.730;8.762;2024-01-11T02:06:07;9.20;;;3.47;;
72639;SDS011;60683;51.730;8.762;2024-01-11T02:08:53;5.15;;;4.15;;
72639;SDS011;60683;51.730;8.762;2024-01-11T02:11:41;6.85;;;3.95;;
72639;SDS011;60683;51.730;8.762;2024-01-11T02:14:26;12.23;;;5.18;;
72639;SDS011;60683;51.730;8.762;2024-01-11T02:17:11;9.80;;;5.07;;
72639;SDS011;60683;51.730;8.762;2024-01-11T02:19:57;11.15;;;4.38;;
72639;SDS011;60683;51.730;8.762;2024-01-11T02:22:46;9.30;;;3.83;;
72639;SDS011;60683;51.730;8.762;2024-01-11T02:25:36;11.35;;;5.13;;
72639;SDS011;60683;51.730;8.762;2024-01-11T02:28:21;7.32;;;3.85;;
72639;SDS011;60683;51.730;8.762;2024-01-11T02:31:07;3.88;;;3.17;;
72639;SDS011;60683;51.730;8.762;2024-01-11T02:33:52;3.08;;;2.78;;
72639;SDS011;60683;51.730;8.762;2024-01-11T02:36:39;2.85;;;2.50;;
72639;SDS011;60683;51.730;8.762;2024-01-11T02:39:24;7.25;;;3.05;;
72639;SDS011;60683;51.730;8.762;2024-01-11T02:42:11;5.22;;;3.38;;
72639;SDS011;60683;51.730;8.762;2024-01-11T02:44:57;2.80;;;2.15;;
72639;SDS011;60683;51.730;8.762;2024-01-11T02:47:43;6.30;;;3.25;;
72639;SDS011;60683;51.730;8.762;2024-01-11T02:50:28;8.55;;;4.60;;
72639;SDS011;60683;51.730;8.762;2024-01-11T02:53:13;6.20;;;2.70;;
72639;SDS011;60683;51.730;8.762;2024-01-11T02:55:58;6.43;;;3.38;;
72639;SDS011;60683;51.730;8.762;2024-01-11T02:58:45;10.35;;;4.47;;
72639;SDS011;60683;51.730;8.762;2024-01-11T03:01:30;9.50;;;4.13;;
72639;SDS011;60683;51.730;8.762;2024-01-11T03:04:16;1.60;;;1.50;;
72639;SDS011;60683;51.730;8.762;2024-01-11T03:07:02;3.65;;;2.70;;
72639;SDS011;60683;51.730;8.762;2024-01-11T03:09:47;5.70;;;3.63;;
72639;SDS011;60683;51.730;8.762;2024-01-11T03:12:32;6.63;;;3.40;;
72639;SDS011;60683;51.730;8.762;2024-01-11T03:15:19;7.47;;;3.55;;
72639;SDS011;60683;51.730;8.762;2024-01-11T03:18:04;3.75;;;3.45;;
72639;SDS011;60683;51.730;8.762;2024-01-11T03:20:50;8.75;;;5.25;;
72639;SDS011;60683;51.730;8.762;2024-01-11T03:23:35;4.75;;;3.33;;
72639;SDS011;60683;51.730;8.762;2024-01-11T03:26:20;8.85;;;4.72;;
72639;SDS011;60683;51.730;8.762;2024-01-11T03:29:05;4.88;;;3.90;;
72639;SDS011;60683;51.730;8.762;2024-01-11T03:31:52;3.42;;;1.75;;
72639;SDS011;60683;51.730;8.762;2024-01-11T03:34:37;13.02;;;4.90;;
72639;SDS011;60683;51.730;8.762;2024-01-11T03:37:22;4.88;;;3.85;;
72639;SDS011;60683;51.730;8.762;2024-01-11T03:40:07;12.60;;;4.05;;
72639;SDS011;60683;51.730;8.762;2024-01-11T03:42:53;6.28;;;3.72;;
72639;SDS011;60683;51.730;8.762;2024-01-11T03:45:38;7.20;;;2.25;;
72639;SDS011;60683;51.730;8.762;2024-01-11T03:48:25;3.58;;;2.97;;
72639;SDS011;60683;51.730;8.762;2024-01-11T03:51:10;7.90;;;4.13;;
72639;SDS011;60683;51.730;8.762;2024-01-11T03:53:56;6.10;;;3.80;;
72639;SDS011;60683;51.730;8.762;2024-01-11T03:56:41;3.20;;;2.90;;
72639;SDS011;60683;51.730;8.762;2024-01-11T03:59:27;10.85;;;3.75;;
72639;SDS011;60683;51.730;8.762;2024-01-11T04:02:12;4.95;;;3.92;;
72639;SDS011;60683;51.730;8.762;2024-01-11T04:04:59;6.78;;;3.75;;
72639;SDS011;60683;51.730;8.762;2024-01-11T04:07:44;4.40;;;2.97;;
72639;SDS011;60683;51.730;8.762;2024-01-11T04:10:30;7.78;;;2.53;;
72639;SDS011;60683;51.730;8.762;2024-01-11T04:13:15;10.45;;;3.28;;
72639;SDS011;60683;51.730;8.762;2024-01-11T04:16:03;8.35;;;3.00;;
72639;SDS011;60683;51.730;8.762;2024-01-11T04:21:35;2.25;;;0.98;;
72639;SDS011;60683;51.730;8.762;2024-01-11T04:24:22;3.70;;;3.00;;
72639;SDS011;60683;51.730;8.762;2024-01-11T04:27:08;6.53;;;5.43;;
72639;SDS011;60683;51.730;8.762;2024-01-11T04:29:53;4.68;;;2.20;;
72639;SDS011;60683;51.730;8.762;2024-01-11T04:32:39;10.07;;;4.20;;
72639;SDS011;60683;51.730;8.762;2024-01-11T04:35:24;3.42;;;2.13;;
72639;SDS011;60683;51.730;8.762;2024-01-11T04:38:11;8.48;;;4.30;;
72639;SDS011;60683;51.730;8.762;2024-01-11T04:40:56;3.05;;;2.45;;
72639;SDS011;60683;51.730;8.762;2024-01-11T04:43:42;5.20;;;3.83;;
72639;SDS011;60683;51.730;8.762;2024-01-11T04:46:29;3.75;;;2.38;;
72639;SDS011;60683;51.730;8.762;2024-01-11T04:49:14;9.05;;;3.58;;
72639;SDS011;60683;51.730;8.762;2024-01-11T04:51:59;4.40;;;2.65;;
72639;SDS011;60683;51.730;8.762;2024-01-11T04:54:47;3.22;;;2.97;;
72639;SDS011;60683;51.730;8.762;2024-01-11T04:57:31;17.02;;;3.85;;
72639;SDS011;60683;51.730;8.762;2024-01-11T05:00:18;5.60;;;3.90;;
72639;SDS011;60683;51.730;8.762;2024-01-11T05:03:03;6.30;;;3.78;;
72639;SDS011;60683;51.730;8.762;2024-01-11T05:05:49;6.93;;;2.78;;
72639;SDS011;60683;51.730;8.762;2024-01-11T05:08:34;9.88;;;3.67;;
72639;SDS011;60683;51.730;8.762;2024-01-11T05:11:21;3.22;;;2.13;;
72639;SDS011;60683;51.730;8.762;2024-01-11T05:16:53;3.13;;;2.38;;
72639;SDS011;60683;51.730;8.762;2024-01-11T05:19:38;15.35;;;3.70;;
72639;SDS011;60683;51.730;8.762;2024-01-11T05:22:24;3.47;;;2.28;;
72639;SDS011;60683;51.730;8.762;2024-01-11T05:25:09;6.07;;;4.05;;
72639;SDS011;60683;51.730;8.762;2024-01-11T05:27:56;4.65;;;2.65;;
72639;SDS011;60683;51.730;8.762;2024-01-11T05:30:42;5.05;;;3.58;;
72639;SDS011;60683;51.730;8.762;2024-01-11T05:33:27;12.15;;;3.80;;
72639;SDS011;60683;51.730;8.762;2024-01-11T05:36:13;7.60;;;3.97;;
72639;SDS011;60683;51.730;8.762;2024-01-11T05:38:58;9.90;;;2.92;;
72639;SDS011;60683;51.730;8.762;2024-01-11T05:41:44;3.17;;;2.00;;
72639;SDS011;60683;51.730;8.762;2024-01-11T05:44:31;3.50;;;2.17;;
72639;SDS011;60683;51.730;8.762;2024-01-11T05:47:16;6.38;;;1.88;;
72639;SDS011;60683;51.730;8.762;2024-01-11T05:50:02;6.68;;;4.30;;
72639;SDS011;60683;51.730;8.762;2024-01-11T05:52:47;6.65;;;4.65;;
72639;SDS011;60683;51.730;8.762;2024-01-11T05:55:33;13.52;;;3.88;;
72639;SDS011;60683;51.730;8.762;2024-01-11T05:58:19;7.53;;;2.70;;
72639;SDS011;60683;51.730;8.762;2024-01-11T06:01:06;6.43;;;4.25;;
72639;SDS011;60683;51.730;8.762;2024-01-11T06:03:51;6.32;;;3.92;;
72639;SDS011;60683;51.730;8.762;2024-01-11T06:06:37;6.93;;;3.42;;
72639;SDS011;60683;51.730;8.762;2024-01-11T06:09:22;7.38;;;3.72;;
72639;SDS011;60683;51.730;8.762;2024-01-11T06:12:08;12.35;;;6.32;;
72639;SDS011;60683;51.730;8.762;2024-01-11T06:14:53;5.85;;;3.60;;
72639;SDS011;60683;51.730;8.762;2024-01-11T06:17:40;3.72;;;2.75;;
72639;SDS011;60683;51.730;8.762;2024-01-11T06:20:26;4.30;;;2.97;;
72639;SDS011;60683;51.730;8.762;2024-01-11T06:23:12;9.57;;;4.32;;
72639;SDS011;60683;51.730;8.762;2024-01-11T06:25:57;11.65;;;4.75;;
72639;SDS011;60683;51.730;8.762;2024-01-11T06:28:42;2.50;;;2.08;;
72639;SDS011;60683;51.730;8.762;2024-01-11T06:31:28;3.25;;;1.17;;
72639;SDS011;60683;51.730;8.762;2024-01-11T06:34:15;3.38;;;2.92;;
72639;SDS011;60683;51.730;8.762;2024-01-11T06:37:00;3.50;;;1.67;;
72639;SDS011;60683;51.730;8.762;2024-01-11T06:39:46;8.13;;;4.45;;
72639;SDS011;60683;51.730;8.762;2024-01-11T06:42:31;1.58;;;0.65;;
72639;SDS011;60683;51.730;8.762;2024-01-11T06:45:17;9.40;;;3.45;;
72639;SDS011;60683;51.730;8.762;2024-01-11T06:48:03;7.20;;;4.30;;
72639;SDS011;60683;51.730;8.762;2024-01-11T06:50:51;2.13;;;1.67;;
72639;SDS011;60683;51.730;8.762;2024-01-11T06:53:36;5.88;;;3.97;;
72639;SDS011;60683;51.730;8.762;2024-01-11T06:56:21;6.72;;;6.05;;
72639;SDS011;60683;51.730;8.762;2024-01-11T06:59:07;7.03;;;3.85;;
72639;SDS011;60683;51.730;8.762;2024-01-11T07:01:52;5.30;;;2.55;;
72639;SDS011;60683;51.730;8.762;2024-01-11T07:04:37;3.97;;;3.13;;
72639;SDS011;60683;51.730;8.762;2024-01-11T07:07:24;4.75;;;2.80;;
72639;SDS011;60683;51.730;8.762;2024-01-11T07:10:10;6.93;;;3.67;;
72639;SDS011;60683;51.730;8.762;2024-01-11T07:12:56;9.15;;;3.53;;
72639;SDS011;60683;51.730;8.762;2024-01-11T07:15:42;10.20;;;4.53;;
72639;SDS011;60683;51.730;8.762;2024-01-11T07:18:27;7.95;;;4.72;;
72639;SDS011;60683;51.730;8.762;2024-01-11T07:21:13;7.15;;;3.85;;
72639;SDS011;60683;51.730;8.762;2024-01-11T07:24:00;8.52;;;5.43;;
72639;SDS011;60683;51.730;8.762;2024-01-11T07:26:45;12.25;;;4.55;;
72639;SDS011;60683;51.730;8.762;2024-01-11T07:29:31;6.03;;;3.40;;
72639;SDS011;60683;51.730;8.762;2024-01-11T07:32:16;11.10;;;3.53;;
72639;SDS011;60683;51.730;8.762;2024-01-11T07:35:02;10.93;;;4.00;;
72639;SDS011;60683;51.730;8.762;2024-01-11T07:37:48;7.45;;;3.00;;
72639;SDS011;60683;51.730;8.762;2024-01-11T07:40:36;8.15;;;4.10;;
72639;SDS011;60683;51.730;8.762;2024-01-11T07:43:22;5.70;;;3.15;;
72639;SDS011;60683;51.730;8.762;2024-01-11T07:46:15;3.45;;;3.00;;
72639;SDS011;60683;51.730;8.762;2024-01-11T07:49:05;1.30;;;1.25;;
72639;SDS011;60683;51.730;8.762;2024-01-11T07:51:55;9.43;;;4.22;;
72639;SDS011;60683;51.730;8.762;2024-01-11T07:54:45;12.85;;;6.00;;
72639;SDS011;60683;51.730;8.762;2024-01-11T07:57:50;9.75;;;3.58;;
72639;SDS011;60683;51.730;8.762;2024-01-11T08:00:41;3.97;;;2.90;;
72639;SDS011;60683;51.730;8.762;2024-01-11T08:03:31;4.55;;;2.72;;
72639;SDS011;60683;51.730;8.762;2024-01-11T08:06:18;4.25;;;3.55;;
72639;SDS011;60683;51.730;8.762;2024-01-11T08:09:12;8.60;;;3.10;;
72639;SDS011;60683;51.730;8.762;2024-01-11T08:12:02;8.80;;;6.20;;
72639;SDS011;60683;51.730;8.762;2024-01-11T08:14:53;8.90;;;4.18;;
72639;SDS011;60683;51.730;8.762;2024-01-11T08:17:43;7.68;;;3.63;;
72639;SDS011;60683;51.730;8.762;2024-01-11T08:20:35;5.10;;;4.28;;
72639;SDS011;60683;51.730;8.762;2024-01-11T08:23:25;8.52;;;4.63;;
72639;SDS011;60683;51.730;8.762;2024-01-11T08:26:15;11.80;;;5.97;;
72639;SDS011;60683;51.730;8.762;2024-01-11T08:29:07;9.88;;;4.85;;
72639;SDS011;60683;51.730;8.762;2024-01-11T08:32:09;8.45;;;4.18;;
72639;SDS011;60683;51.730;8.762;2024-01-11T08:34:59;10.07;;;5.00;;
72639;SDS011;60683;51.730;8.762;2024-01-11T08:37:50;15.73;;;6.97;;
72639;SDS011;60683;51.730;8.762;2024-01-11T08:40:41;12.63;;;5.93;;
72639;SDS011;60683;51.730;8.762;2024-01-11T08:43:30;6.82;;;4.63;;
72639;SDS011;60683;51.730;8.762;2024-01-11T08:46:23;9.27;;;4.90;;
72639;SDS011;60683;51.730;8.762;2024-01-11T08:49:23;5.93;;;5.10;;
72639;SDS011;60683;51.730;8.762;2024-01-11T08:52:30;7.68;;;4.68;;
72639;SDS011;60683;51.730;8.762;2024-01-11T08:55:21;12.38;;;4.40;;
72639;SDS011;60683;51.730;8.762;2024-01-11T08:58:12;11.68;;;5.05;;
72639;SDS011;60683;51.730;8.762;2024-01-11T09:01:05;11.05;;;4.72;;
72639;SDS011;60683;51.730;8.762;2024-01-11T09:03:55;10.80;;;5.35;;
72639;SDS011;60683;51.730;8.762;2024-01-11T09:06:50;13.20;;;4.97;;
72639;SDS011;60683;51.730;8.762;2024-01-11T09:09:40;11.75;;;5.40;;
72639;SDS011;60683;51.730;8.762;2024-01-11T09:12:27;4.80;;;2.33;;
72639;SDS011;60683;51.730;8.762;2024-01-11T09:18:07;9.60;;;2.67;;
72639;SDS011;60683;51.730;8.762;2024-01-11T09:20:59;8.45;;;5.10;;
72639;SDS011;60683;51.730;8.762;2024-01-11T09:23:52;11.07;;;5.35;;
72639;SDS011;60683;51.730;8.762;2024-01-11T09:26:47;14.90;;;5.90;;
72639;SDS011;60683;51.730;8.762;2024-01-11T09:29:42;13.48;;;7.47;;
72639;SDS011;60683;51.730;8.762;2024-01-11T09:32:38;10.70;;;4.90;;
72639;SDS011;60683;51.730;8.762;2024-01-11T09:35:28;12.27;;;6.95;;
72639;SDS011;60683;51.730;8.762;2024-01-11T09:38:17;11.80;;;6.00;;
72639;SDS011;60683;51.730;8.762;2024-01-11T09:41:11;9.30;;;5.35;;
72639;SDS011;60683;51.730;8.762;2024-01-11T09:44:03;11.73;;;5.53;;
72639;SDS011;60683;51.730;8.762;2024-01-11T09:46:58;12.30;;;6.90;;
72639;SDS011;60683;51.730;8.762;2024-01-11T09:49:53;15.98;;;6.55;;
72639;SDS011;60683;51.730;8.762;2024-01-11T09:52:47;15.18;;;3.28;;
72639;SDS011;60683;51.730;8.762;2024-01-11T09:55:37;8.95;;;4.90;;
72639;SDS011;60683;51.730;8.762;2024-01-11T09:58:35;10.43;;;6.57;;
72639;SDS011;60683;51.730;8.762;2024-01-11T10:01:26;17.77;;;6.15;;
72639;SDS011;60683;51.730;8.762;2024-01-11T10:04:20;12.60;;;7.00;;
72639;SDS011;60683;51.730;8.762;2024-01-11T10:07:10;9.55;;;5.53;;
72639;SDS011;60683;51.730;8.762;2024-01-11T10:10:02;11.73;;;5.78;;
72639;SDS011;60683;51.730;8.762;2024-01-11T10:12:53;15.68;;;6.72;;
72639;SDS011;60683;51.730;8.762;2024-01-11T10:18:40;5.50;;;3.47;;
72639;SDS011;60683;51.730;8.762;2024-01-11T10:21:30;19.90;;;5.55;;
72639;SDS011;60683;51.730;8.762;2024-01-11T10:24:19;14.00;;;5.85;;
72639;SDS011;60683;51.730;8.762;2024-01-11T10:27:25;12.45;;;5.85;;
72639;SDS011;60683;51.730;8.762;2024-01-11T10:30:16;14.10;;;7.43;;
72639;SDS011;60683;51.730;8.762;2024-01-11T10:33:11;9.07;;;3.95;;
72639;SDS011;60683;51.730;8.762;2024-01-11T10:36:02;6.57;;;5.43;;
72639;SDS011;60683;51.730;8.762;2024-01-11T10:39:00;6.18;;;3.58;;
72639;SDS011;60683;51.730;8.762;2024-01-11T10:41:59;14.65;;;6.57;;
72639;SDS011;60683;51.730;8.762;2024-01-11T10:45:02;12.85;;;6.55;;
72639;SDS011;60683;51.730;8.762;2024-01-11T10:48:00;15.70;;;8.45;;
72639;SDS011;60683;51.730;8.762;2024-01-11T10:50:55;11.48;;;5.07;;
72639;SDS011;60683;51.730;8.762;2024-01-11T10:53:49;8.65;;;5.22;;
72639;SDS011;60683;51.730;8.762;2024-01-11T10:56:39;11.32;;;6.95;;
72639;SDS011;60683;51.730;8.762;2024-01-11T10:59:29;7.88;;;6.75;;
72639;SDS011;60683;51.730;8.762;2024-01-11T11:02:21;12.70;;;6.10;;
72639;SDS011;60683;51.730;8.762;2024-01-11T11:05:10;13.05;;;5.20;;
72639;SDS011;60683;51.730;8.762;2024-01-11T11:08:08;19.50;;;7.80;;
72639;SDS011;60683;51.730;8.762;2024-01-11T11:11:02;11.48;;;6.00;;
72639;SDS011;60683;51.730;8.762;2024-01-11T11:13:53;12.60;;;5.78;;
72639;SDS011;60683;51.730;8.762;2024-01-11T11:16:50;13.23;;;5.68;;
72639;SDS011;60683;51.730;8.762;2024-01-11T11:19:39;15.63;;;7.55;;
72639;SDS011;60683;51.730;8.762;2024-01-11T11:22:33;16.13;;;5.63;;
72639;SDS011;60683;51.730;8.762;2024-01-11T11:25:33;12.13;;;6.32;;
72639;SDS011;60683;51.730;8.762;2024-01-11T11:28:24;14.73;;;7.10;;
72639;SDS011;60683;51.730;8.762;2024-01-11T11:34:41;17.38;;;8.95;;
72639;SDS011;60683;51.730;8.762;2024-01-11T11:37:40;9.13;;;3.90;;
72639;SDS011;60683;51.730;8.762;2024-01-11T11:40:38;16.15;;;8.82;;
72639;SDS011;60683;51.730;8.762;2024-01-11T11:43:32;21.85;;;9.55;;
72639;SDS011;60683;51.730;8.762;2024-01-11T11:46:21;26.50;;;11.27;;
72639;SDS011;60683;51.730;8.762;2024-01-11T11:49:10;20.38;;;10.02;;
72639;SDS011;60683;51.730;8.762;2024-01-11T11:51:59;11.95;;;7.40;;
72639;SDS011;60683;51.730;8.762;2024-01-11T11:54:52;17.83;;;9.00;;
72639;SDS011;60683;51.730;8.762;2024-01-11T11:57:45;20.80;;;9.23;;
72639;SDS011;60683;51.730;8.762;2024-01-11T12:00:36;19.20;;;8.85;;
72639;SDS011;60683;51.730;8.762;2024-01-11T12:03:25;23.25;;;10.48;;
72639;SDS011;60683;51.730;8.762;2024-01-11T12:06:28;10.15;;;5.35;;
72639;SDS011;60683;51.730;8.762;2024-01-11T12:09:18;14.68;;;7.45;;
72639;SDS011;60683;51.730;8.762;2024-01-11T12:12:13;16.15;;;8.27;;
72639;SDS011;60683;51.730;8.762;2024-01-11T12:15:01;18.45;;;7.82;;
72639;SDS011;60683;51.730;8.762;2024-01-11T12:17:50;13.38;;;5.32;;
72639;SDS011;60683;51.730;8.762;2024-01-11T12:20:40;12.35;;;6.50;;
72639;SDS011;60683;51.730;8.762;2024-01-11T12:23:30;14.10;;;7.45;;
72639;SDS011;60683;51.730;8.762;2024-01-11T12:26:21;22.38;;;10.00;;
72639;SDS011;60683;51.730;8.762;2024-01-11T12:29:11;14.13;;;7.45;;
72639;SDS011;60683;51.730;8.762;2024-01-11T12:32:10;22.38;;;10.25;;
72639;SDS011;60683;51.730;8.762;2024-01-11T12:35:03;22.67;;;10.43;;
72639;SDS011;60683;51.730;8.762;2024-01-11T12:37:55;14.40;;;6.75;;
72639;SDS011;60683;51.730;8.762;2024-01-11T12:40:46;25.52;;;10.27;;
72639;SDS011;60683;51.730;8.762;2024-01-11T12:43:35;24.65;;;10.27;;
72639;SDS011;60683;51.730;8.762;2024-01-11T12:46:25;25.33;;;10.77;;
72639;SDS011;60683;51.730;8.762;2024-01-11T12:49:26;22.40;;;9.27;;
72639;SDS011;60683;51.730;8.762;2024-01-11T12:52:16;14.00;;;7.53;;
72639;SDS011;60683;51.730;8.762;2024-01-11T12:55:07;17.52;;;8.15;;
72639;SDS011;60683;51.730;8.762;2024-01-11T12:58:07;23.75;;;10.95;;
72639;SDS011;60683;51.730;8.762;2024-01-11T13:00:56;20.48;;;9.82;;
72639;SDS011;60683;51.730;8.762;2024-01-11T13:03:46;19.23;;;8.10;;
72639;SDS011;60683;51.730;8.762;2024-01-11T13:06:41;9.75;;;4.93;;
72639;SDS011;60683;51.730;8.762;2024-01-11T13:09:33;23.15;;;9.15;;
72639;SDS011;60683;51.730;8.762;2024-01-11T13:14:56;15.20;;;8.57;;
72639;SDS011;60683;51.730;8.762;2024-01-11T13:17:41;18.23;;;8.57;;
72639;SDS011;60683;51.730;8.762;2024-01-11T13:20:26;21.90;;;8.82;;
72639;SDS011;60683;51.730;8.762;2024-01-11T13:23:14;13.90;;;9.57;;
72639;SDS011;60683;51.730;8.762;2024-01-11T13:26:01;16.77;;;8.98;;
72639;SDS011;60683;51.730;8.762;2024-01-11T13:28:48;19.92;;;9.68;;
72639;SDS011;60683;51.730;8.762;2024-01-11T13:31:35;14.43;;;7.65;;
72639;SDS011;60683;51.730;8.762;2024-01-11T13:34:21;12.20;;;6.10;;
72639;SDS011;60683;51.730;8.762;2024-01-11T13:37:07;19.77;;;9.40;;
72639;SDS011;60683;51.730;8.762;2024-01-11T13:39:54;11.80;;;5.63;;
72639;SDS011;60683;51.730;8.762;2024-01-11T13:42:39;16.42;;;7.80;;
72639;SDS011;60683;51.730;8.762;2024-01-11T13:45:25;11.10;;;5.90;;
72639;SDS011;60683;51.730;8.762;2024-01-11T13:48:11;8.70;;;5.32;;
72639;SDS011;60683;51.730;8.762;2024-01-11T13:50:57;4.75;;;1.88;;
72639;SDS011;60683;51.730;8.762;2024-01-11T13:53:43;4.40;;;1.70;;
72639;SDS011;60683;51.730;8.762;2024-01-11T13:56:31;10.35;;;1.63;;
72639;SDS011;60683;51.730;8.762;2024-01-11T13:59:19;2.67;;;0.95;;
72639;SDS011;60683;51.730;8.762;2024-01-11T14:02:10;2.65;;;1.45;;
72639;SDS011;60683;51.730;8.762;2024-01-11T14:04:58;2.47;;;1.13;;
72639;SDS011;60683;51.730;8.762;2024-01-11T14:29:57;14.38;;;4.25;;
72639;SDS011;60683;51.730;8.762;2024-01-11T14:32:43;10.13;;;6.07;;
72639;SDS011;60683;51.730;8.762;2024-01-11T14:35:28;10.43;;;4.47;;
72639;SDS011;60683;51.730;8.762;2024-01-11T14:38:15;11.98;;;6.28;;
72639;SDS011;60683;51.730;8.762;2024-01-11T14:41:00;20.88;;;8.73;;
72639;SDS011;60683;51.730;8.762;2024-01-11T14:43:46;18.67;;;6.85;;
72639;SDS011;60683;51.730;8.762;2024-01-11T14:46:33;19.98;;;8.43;;
72639;SDS011;60683;51.730;8.762;2024-01-11T14:49:18;14.27;;;7.07;;
72639;SDS011;60683;51.730;8.762;2024-01-11T14:52:04;7.63;;;4.55;;
72639;SDS011;60683;51.730;8.762;2024-01-11T14:54:50;8.27;;;4.70;;
72639;SDS011;60683;51.730;8.762;2024-01-11T14:57:35;10.68;;;4.57;;
72639;SDS011;60683;51.730;8.762;2024-01-11T15:00:21;14.07;;;6.57;;
72639;SDS011;60683;51.730;8.762;2024-01-11T15:03:09;12.35;;;5.82;;
72639;SDS011;60683;51.730;8.762;2024-01-11T15:05:55;14.35;;;6.30;;
72639;SDS011;60683;51.730;8.762;2024-01-11T15:08:41;11.45;;;6.50;;
72639;SDS011;60683;51.730;8.762;2024-01-11T15:11:27;12.02;;;6.63;;
72639;SDS011;60683;51.730;8.762;2024-01-11T15:14:12;11.00;;;5.47;;
72639;SDS011;60683;51.730;8.762;2024-01-11T15:16:58;12.48;;;5.80;;
72639;SDS011;60683;51.730;8.762;2024-01-11T15:19:45;20.77;;;7.18;;
72639;SDS011;60683;51.730;8.762;2024-01-11T15:22:31;8.90;;;6.75;;
72639;SDS011;60683;51.730;8.762;2024-01-11T15:25:16;11.68;;;5.72;;
72639;SDS011;60683;51.730;8.762;2024-01-11T15:28:03;7.00;;;3.45;;
72639;SDS011;60683;51.730;8.762;2024-01-11T15:30:48;10.18;;;6.03;;
72639;SDS011;60683;51.730;8.762;2024-01-11T15:33:34;8.05;;;4.00;;
72639;SDS011;60683;51.730;8.762;2024-01-11T15:36:21;18.40;;;6.95;;
72639;SDS011;60683;51.730;8.762;2024-01-11T15:39:06;10.57;;;4.53;;
72639;SDS011;60683;51.730;8.762;2024-01-11T15:41:52;13.90;;;5.93;;
72639;SDS011;60683;51.730;8.762;2024-01-11T15:44:39;13.98;;;6.22;;
72639;SDS011;60683;51.730;8.762;2024-01-11T15:47:23;11.07;;;4.65;;
72639;SDS011;60683;51.730;8.762;2024-01-11T15:50:09;10.25;;;4.82;;
72639;SDS011;60683;51.730;8.762;2024-01-11T15:52:56;15.30;;;7.90;;
72639;SDS011;60683;51.730;8.762;2024-01-11T15:55:41;11.48;;;6.47;;
72639;SDS011;60683;51.730;8.762;2024-01-11T15:58:26;11.43;;;6.15;;
72639;SDS011;60683;51.730;8.762;2024-01-11T16:01:12;10.85;;;5.47;;
72639;SDS011;60683;51.730;8.762;2024-01-11T16:03:57;11.82;;;6.20;;
72639;SDS011;60683;51.730;8.762;2024-01-11T16:06:43;9.85;;;7.05;;
72639;SDS011;60683;51.730;8.762;2024-01-11T16:09:30;13.70;;;6.93;;
72639;SDS011;60683;51.730;8.762;2024-01-11T16:12:15;17.20;;;10.13;;
72639;SDS011;60683;51.730;8.762;2024-01-11T16:15:00;11.77;;;6.00;;
72639;SDS011;60683;51.730;8.762;2024-01-11T16:20:22;23.60;;;7.20;;
72639;SDS011;60683;51.730;8.762;2024-01-11T16:23:08;13.02;;;7.18;;
72639;SDS011;60683;51.730;8.762;2024-01-11T16:25:55;16.40;;;6.93;;
72639;SDS011;60683;51.730;8.762;2024-01-11T16:28:42;13.38;;;5.97;;
72639;SDS011;60683;51.730;8.762;2024-01-11T16:31:28;17.55;;;7.45;;
72639;SDS011;60683;51.730;8.762;2024-01-11T16:34:13;14.40;;;7.68;;
72639;SDS011;60683;51.730;8.762;2024-01-11T16:36:59;23.48;;;8.43;;
72639;SDS011;60683;51.730;8.762;2024-01-11T16:39:45;15.55;;;6.97;;
72639;SDS011;60683;51.730;8.762;2024-01-11T16:42:32;13.30;;;5.03;;
72639;SDS011;60683;51.730;8.762;2024-01-11T16:45:18;19.35;;;8.77;;
72639;SDS011;60683;51.730;8.762;2024-01-11T16:48:04;12.60;;;6.97;;
72639;SDS011;60683;51.730;8.762;2024-01-11T16:50:54;22.80;;;8.65;;
72639;SDS011;60683;51.730;8.762;2024-01-11T16:53:41;20.65;;;7.75;;
72639;SDS011;60683;51.730;8.762;2024-01-11T16:56:27;21.55;;;7.93;;
72639;SDS011;60683;51.730;8.762;2024-01-11T16:59:14;23.48;;;8.50;;
72639;SDS011;60683;51.730;8.762;2024-01-11T17:02:01;18.83;;;9.10;;
72639;SDS011;60683;51.730;8.762;2024-01-11T17:04:49;19.77;;;8.15;;
72639;SDS011;60683;51.730;8.762;2024-01-11T17:07:35;17.23;;;7.97;;
72639;SDS011;60683;51.730;8.762;2024-01-11T17:10:22;21.75;;;9.30;;
72639;SDS011;60683;51.730;8.762;2024-01-11T17:13:09;21.65;;;9.20;;
72639;SDS011;60683;51.730;8.762;2024-01-11T17:15:57;19.60;;;9.02;;
72639;SDS011;60683;51.730;8.762;2024-01-11T17:18:43;22.63;;;9.68;;
72639;SDS011;60683;51.730;8.762;2024-01-11T17:21:28;26.83;;;9.07;;
72639;SDS011;60683;51.730;8.762;2024-01-11T17:24:14;19.85;;;9.20;;
72639;SDS011;60683;51.730;8.762;2024-01-11T17:27:00;16.38;;;8.77;;